Ana Sayfa
METAR-TAF:

METAR-TAF

Havaalanları :

Yeni Delhi, Hindistan

Enlem: 28-34N, Boylam: 077-07E, yükseklik: 220 m

Güncel hava durumu gözlemi

Rapor saat 21:30 UTC de 32 dakika önce yapıldı.
Rüzgar batı/güneybatıdan 6 kt
Sıcaklık 16°C
Nem 88%
Basınç 1012 hPa
Görüş mesafesi: 0800 m
Sığ sis

METAR: VIDP 242130Z 24006KT 0800 R28/P2000 R29/P2000 MIFG NSC 16/14 Q1012 NOSIG

Saat: 03:32 (22:02 UTC)

Tahmin

Rapor saat 20:00 UTC de 2 saat ve 2 dakika önce yapıldı.
Ayın 24'si saat 21 UTC'den ayın 25'si saat 06 UTC'ye kadar geçerli Tahmin
Rüzgar kuzeydan kt
Görüş mesafesi: 0800 m
Sığ sis
Dönüşüyor
ayın 25'si saat 00 UTC'den ayın 25'si saat 02 UTC'ye kadar
Rüzgar güneybatıdan 4 kt
Görüş mesafesi: 0400 m
sis
Dönüşüyor
ayın 25'si saat 04 UTC'den ayın 25'si saat 06 UTC'ye kadar
Rüzgar batı/kuzeybatıdan 7 kt
Görüş mesafesi: 1200 m
Duman

TAF: VIDP 242000Z 2421/2506 00000KT 0800 MIFG NSC BECMG 2500/2502 23004KT 0400 FG BECMG 2504/2506 29007KT 1200 FU

4.000'den fazla havaalanı için hava durumu gözlemleri ve tahminleri (METAR ve TAF raporları).

Kullanılabilir istasyonlar harita üzerinde sarı ve kırmızı noktalarla gösterilir.

İstasyonun adını görmek için fareyi noktanın üzerinde gezdirin.

Sonrasında hava gözlem ve tahminlerini görmek için tıklayın.

Haritayı değiştirmek için: yaklaştırmak için siyah artı işaretli yeşil düğmeye ve uzaklaştırmak için de eksi işaretli düğmeye hızla tıklayın; bitişik haritalar için yeşil okları kullanın.


METAR-TAF: